Time;durP1;ratioP1;P1;durP2;ratioP2;P2;SDS_P1;SDS_P2;PMS_P1;PMS_P2;Temp;Humidity;BMP_temperature;BMP_pressure;BME280_temperature;BME280_humidity;BME280_pressure;Samples;Min_cycle;Max_cycle;Signal;HPM_P1;HPM_P2
2023/12/23 00:01:10;;;;;;;0.37;0.37;;;;;;;;;;5010294;28;20211;-27
2023/12/23 00:03:38;;;;;;;1.73;0.70;;;;;;;;;;5023349;28;20260;-28
2023/12/23 00:06:06;;;;;;;0.40;0.40;;;;;;;;;;5008887;28;20222;-27
2023/12/23 00:08:33;;;;;;;2.10;0.60;;;;;;;;;;5009177;28;20210;-29
2023/12/23 00:11:00;;;;;;;0.87;0.77;;;;;;;;;;5020011;28;20218;-26
2023/12/23 00:13:27;;;;;;;1.73;0.60;;;;;;;;;;5006143;28;20219;-29
2023/12/23 00:15:54;;;;;;;1.20;0.60;;;;;;;;;;4997950;28;20231;-27
2023/12/23 00:18:21;;;;;;;1.73;0.47;;;;;;;;;;5011297;28;20215;-26
2023/12/23 00:20:49;;;;;;;1.00;0.57;;;;;;;;;;5003902;28;20212;-29
2023/12/23 00:23:26;;;;;;;1.37;0.60;;;;;;;;;;5000388;28;20207;-26
2023/12/23 00:25:53;;;;;;;0.50;0.50;;;;;;;;;;5020014;28;20314;-28
2023/12/23 00:28:20;;;;;;;1.73;0.90;;;;;;;;;;5021509;28;20215;-28
2023/12/23 00:30:47;;;;;;;2.10;0.63;;;;;;;;;;5000958;28;20214;-28
2023/12/23 00:33:14;;;;;;;0.57;0.50;;;;;;;;;;5008313;28;20224;-27
2023/12/23 00:35:42;;;;;;;1.93;0.70;;;;;;;;;;5000864;28;20231;-27
2023/12/23 00:38:11;;;;;;;1.03;0.57;;;;;;;;;;5002406;28;20211;-27
2023/12/23 00:40:38;;;;;;;1.20;0.70;;;;;;;;;;5019788;28;20206;-29
2023/12/23 00:43:05;;;;;;;0.70;0.40;;;;;;;;;;5016635;28;20520;-28
2023/12/23 00:45:32;;;;;;;0.50;0.50;;;;;;;;;;4999381;28;20267;-26
2023/12/23 00:47:59;;;;;;;2.80;0.70;;;;;;;;;;5014094;28;20202;-29
2023/12/23 00:50:26;;;;;;;2.00;0.50;;;;;;;;;;5008759;28;20211;-27
2023/12/23 00:52:53;;;;;;;2.07;0.70;;;;;;;;;;4999456;28;20208;-28
2023/12/23 00:55:22;;;;;;;2.07;0.50;;;;;;;;;;5023174;28;20238;-27
2023/12/23 00:57:49;;;;;;;0.23;0.23;;;;;;;;;;5023207;28;20302;-25
2023/12/23 01:00:17;;;;;;;0.90;0.77;;;;;;;;;;4999026;28;20223;-28
2023/12/23 01:02:44;;;;;;;0.70;0.50;;;;;;;;;;5006861;28;20464;-28
2023/12/23 01:05:11;;;;;;;2.20;0.40;;;;;;;;;;5007064;28;20223;-28
2023/12/23 01:07:38;;;;;;;1.17;0.60;;;;;;;;;;4999628;28;20290;-26
2023/12/23 01:10:05;;;;;;;0.80;0.53;;;;;;;;;;5016536;28;20215;-26
2023/12/23 01:12:34;;;;;;;2.83;0.60;;;;;;;;;;5027104;28;20226;-26
2023/12/23 01:15:01;;;;;;;1.33;0.73;;;;;;;;;;5013104;28;20223;-28
2023/12/23 01:17:28;;;;;;;1.70;0.50;;;;;;;;;;5001841;28;20225;-27
2023/12/23 01:19:55;;;;;;;2.13;0.80;;;;;;;;;;5015498;28;20219;-28
2023/12/23 01:22:22;;;;;;;2.37;0.50;;;;;;;;;;4998297;28;20234;-28
2023/12/23 01:24:49;;;;;;;1.03;0.80;;;;;;;;;;5005658;28;20230;-26
2023/12/23 01:27:16;;;;;;;3.13;0.70;;;;;;;;;;5005789;28;20206;-27
2023/12/23 01:29:44;;;;;;;0.80;0.60;;;;;;;;;;5008521;28;20208;-29
2023/12/23 01:32:11;;;;;;;2.13;0.53;;;;;;;;;;5012156;28;20211;-28
2023/12/23 01:34:39;;;;;;;2.20;0.47;;;;;;;;;;5023964;28;20238;-28
2023/12/23 01:37:06;;;;;;;0.67;0.37;;;;;;;;;;5006121;28;20290;-26
2023/12/23 01:39:33;;;;;;;3.13;0.73;;;;;;;;;;5013919;28;20638;-27
2023/12/23 01:42:00;;;;;;;0.97;0.63;;;;;;;;;;5009154;28;20218;-27
2023/12/23 01:44:27;;;;;;;0.73;0.60;;;;;;;;;;5013632;28;20257;-28
2023/12/23 01:46:56;;;;;;;1.40;0.40;;;;;;;;;;5000541;28;20674;-27
2023/12/23 01:49:24;;;;;;;0.40;0.40;;;;;;;;;;5015892;28;20210;-28
2023/12/23 01:51:51;;;;;;;0.70;0.50;;;;;;;;;;4995049;28;20211;-28
2023/12/23 01:54:19;;;;;;;2.80;0.60;;;;;;;;;;5007030;28;20235;-28
2023/12/23 01:56:48;;;;;;;1.50;0.43;;;;;;;;;;5008659;28;20318;-29
2023/12/23 01:59:16;;;;;;;1.70;0.43;;;;;;;;;;5010513;28;20203;-27
2023/12/23 02:01:44;;;;;;;0.40;0.40;;;;;;;;;;5001636;28;20215;-27
2023/12/23 02:04:13;;;;;;;1.20;0.33;;;;;;;;;;5021185;28;20871;-25
2023/12/23 02:06:39;;;;;;;0.50;0.43;;;;;;;;;;5009231;28;20211;-27
2023/12/23 02:09:06;;;;;;;2.23;0.60;;;;;;;;;;5018614;28;20229;-25
2023/12/23 02:11:42;;;;;;;1.23;0.50;;;;;;;;;;5024799;28;20219;-26
2023/12/23 02:14:14;;;;;;;0.70;0.60;;;;;;;;;;5008255;28;20235;-26
2023/12/23 02:16:41;;;;;;;1.40;0.50;;;;;;;;;;5002638;28;20234;-28
2023/12/23 02:19:08;;;;;;;0.60;0.60;;;;;;;;;;5009340;28;20211;-27
2023/12/23 02:21:36;;;;;;;2.80;0.70;;;;;;;;;;5004944;28;20214;-30
2023/12/23 02:24:04;;;;;;;0.43;0.40;;;;;;;;;;5003242;28;20532;-27
2023/12/23 02:26:32;;;;;;;3.60;1.17;;;;;;;;;;5018752;28;20299;-29
2023/12/23 02:29:00;;;;;;;2.93;0.83;;;;;;;;;;5019148;28;20203;-26
2023/12/23 02:31:27;;;;;;;0.53;0.53;;;;;;;;;;5000889;28;20211;-29
2023/12/23 02:33:54;;;;;;;2.20;0.60;;;;;;;;;;5018249;28;20211;-28
2023/12/23 02:36:22;;;;;;;2.67;0.80;;;;;;;;;;4991470;28;20223;-29
2023/12/23 02:38:50;;;;;;;1.03;0.63;;;;;;;;;;5006550;28;20230;-26
2023/12/23 02:41:17;;;;;;;2.33;0.77;;;;;;;;;;5026488;28;20215;-28
2023/12/23 02:43:44;;;;;;;1.70;0.63;;;;;;;;;;5004543;28;20212;-28
2023/12/23 02:46:11;;;;;;;3.03;0.67;;;;;;;;;;5012206;28;20216;-26
2023/12/23 02:48:38;;;;;;;2.00;0.83;;;;;;;;;;5024523;28;20207;-28
2023/12/23 02:51:05;;;;;;;1.57;0.60;;;;;;;;;;5013325;28;20217;-26
2023/12/23 02:53:32;;;;;;;3.00;0.97;;;;;;;;;;4999279;28;20214;-26
2023/12/23 02:56:01;;;;;;;0.57;0.50;;;;;;;;;;5018033;28;20234;-27
2023/12/23 02:58:28;;;;;;;1.97;0.73;;;;;;;;;;5014758;28;20467;-27
2023/12/23 03:00:55;;;;;;;1.23;0.70;;;;;;;;;;5003972;28;20204;-27
2023/12/23 03:03:22;;;;;;;1.07;0.70;;;;;;;;;;5002898;28;20343;-27
2023/12/23 03:05:50;;;;;;;2.50;1.03;;;;;;;;;;5003007;28;20215;-29
2023/12/23 03:08:17;;;;;;;1.10;0.57;;;;;;;;;;5012554;28;20211;-26
2023/12/23 03:10:44;;;;;;;2.07;0.53;;;;;;;;;;5013887;28;20223;-26
2023/12/23 03:13:12;;;;;;;1.63;0.53;;;;;;;;;;5030625;28;20202;-29
2023/12/23 03:15:39;;;;;;;0.43;0.40;;;;;;;;;;5025258;28;20220;-26
2023/12/23 03:18:06;;;;;;;0.30;0.30;;;;;;;;;;4998791;28;20204;-29
2023/12/23 03:20:33;;;;;;;1.30;0.47;;;;;;;;;;5005264;28;20208;-26
2023/12/23 03:23:00;;;;;;;0.40;0.40;;;;;;;;;;5010864;28;20222;-26
2023/12/23 03:25:29;;;;;;;1.83;0.40;;;;;;;;;;5018298;28;20227;-27
2023/12/23 03:27:56;;;;;;;2.20;0.80;;;;;;;;;;5010118;28;20222;-28
2023/12/23 03:30:24;;;;;;;2.63;0.63;;;;;;;;;;5012582;28;20215;-27
2023/12/23 03:32:51;;;;;;;1.83;0.50;;;;;;;;;;5009573;28;20219;-26
2023/12/23 03:35:18;;;;;;;1.77;0.63;;;;;;;;;;5024411;28;20235;-29
2023/12/23 03:37:45;;;;;;;1.93;0.80;;;;;;;;;;5004295;28;20218;-26
2023/12/23 03:40:13;;;;;;;2.17;0.70;;;;;;;;;;5027320;28;20292;-28
2023/12/23 03:42:40;;;;;;;0.60;0.47;;;;;;;;;;5020771;28;20211;-27
2023/12/23 03:45:08;;;;;;;1.97;0.80;;;;;;;;;;5017005;28;20231;-29
2023/12/23 03:47:38;;;;;;;1.63;1.20;;;;;;;;;;5006583;28;20213;-29
2023/12/23 03:50:06;;;;;;;4.77;1.07;;;;;;;;;;5020000;28;20303;-27
2023/12/23 03:52:33;;;;;;;1.77;0.40;;;;;;;;;;4995523;28;20551;-29
2023/12/23 03:55:00;;;;;;;1.23;0.67;;;;;;;;;;5006004;28;20233;-29
2023/12/23 03:57:27;;;;;;;2.77;0.90;;;;;;;;;;5010181;28;20203;-26
2023/12/23 03:59:54;;;;;;;1.80;0.70;;;;;;;;;;5002959;28;20235;-28
2023/12/23 04:02:21;;;;;;;2.87;0.87;;;;;;;;;;4994150;28;20215;-26
2023/12/23 04:04:49;;;;;;;1.33;0.60;;;;;;;;;;5009876;28;20228;-29
2023/12/23 04:07:16;;;;;;;3.60;0.63;;;;;;;;;;4996798;28;20573;-27
2023/12/23 04:09:43;;;;;;;0.57;0.57;;;;;;;;;;5018082;28;20395;-28
2023/12/23 04:12:11;;;;;;;1.40;0.37;;;;;;;;;;4998559;28;20289;-28
2023/12/23 04:14:40;;;;;;;1.73;0.50;;;;;;;;;;4999402;28;20693;-26
2023/12/23 04:17:07;;;;;;;0.53;0.30;;;;;;;;;;5005532;28;20202;-27
2023/12/23 04:19:34;;;;;;;1.73;0.40;;;;;;;;;;5004464;28;20219;-26
2023/12/23 04:22:03;;;;;;;0.67;0.40;;;;;;;;;;4997660;28;20204;-27
2023/12/23 04:24:30;;;;;;;0.33;0.33;;;;;;;;;;5005589;28;20284;-29
2023/12/23 04:26:57;;;;;;;0.40;0.40;;;;;;;;;;5009995;28;20203;-28
2023/12/23 04:29:25;;;;;;;0.43;0.40;;;;;;;;;;5001335;28;20208;-26
2023/12/23 04:31:52;;;;;;;0.43;0.13;;;;;;;;;;5016735;28;20214;-27
2023/12/23 04:34:19;;;;;;;0.60;0.23;;;;;;;;;;5020791;28;20226;-28
2023/12/23 04:36:46;;;;;;;0.50;0.27;;;;;;;;;;5005673;28;20223;-28
2023/12/23 04:39:15;;;;;;;2.20;0.60;;;;;;;;;;5010630;28;20203;-29
2023/12/23 04:41:47;;;;;;;1.47;0.30;;;;;;;;;;5016068;28;20212;-29
2023/12/23 04:44:14;;;;;;;1.37;0.40;;;;;;;;;;5013462;28;20228;-29
2023/12/23 04:46:41;;;;;;;0.70;0.40;;;;;;;;;;5009713;28;20199;-26
2023/12/23 04:49:08;;;;;;;0.50;0.20;;;;;;;;;;5014574;28;20203;-29
2023/12/23 04:51:36;;;;;;;1.13;0.40;;;;;;;;;;5009096;28;20206;-26
2023/12/23 04:54:03;;;;;;;0.43;0.40;;;;;;;;;;5003498;28;20231;-28
2023/12/23 04:56:31;;;;;;;1.03;0.53;;;;;;;;;;5016043;28;20230;-26
2023/12/23 04:58:58;;;;;;;2.37;0.30;;;;;;;;;;5006153;28;20578;-29
2023/12/23 05:01:25;;;;;;;2.63;1.17;;;;;;;;;;5001895;28;20439;-27
2023/12/23 05:03:53;;;;;;;1.03;0.30;;;;;;;;;;5012471;28;20203;-26
2023/12/23 05:06:20;;;;;;;2.00;0.30;;;;;;;;;;4999325;28;20196;-29
2023/12/23 05:08:47;;;;;;;0.40;0.40;;;;;;;;;;5003539;28;20203;-27
2023/12/23 05:11:14;;;;;;;0.67;0.27;;;;;;;;;;5007321;28;20208;-27
2023/12/23 05:13:43;;;;;;;0.87;0.43;;;;;;;;;;5003763;28;20204;-28
2023/12/23 05:16:10;;;;;;;0.50;0.40;;;;;;;;;;5000794;28;20227;-29
2023/12/23 05:18:37;;;;;;;0.30;0.30;;;;;;;;;;5004828;28;20203;-26
2023/12/23 05:21:04;;;;;;;0.40;0.40;;;;;;;;;;4995707;28;20206;-29
2023/12/23 05:23:31;;;;;;;1.03;0.30;;;;;;;;;;4998248;28;20208;-27
2023/12/23 05:25:59;;;;;;;0.20;0.20;;;;;;;;;;5008243;28;20221;-26
2023/12/23 05:28:26;;;;;;;0.50;0.40;;;;;;;;;;5018979;28;20238;-26
2023/12/23 05:30:54;;;;;;;1.77;0.40;;;;;;;;;;5009653;28;20214;-27
2023/12/23 05:33:24;;;;;;;0.20;0.20;;;;;;;;;;5025574;28;20348;-29
2023/12/23 05:35:51;;;;;;;0.33;0.33;;;;;;;;;;5011020;28;20238;-28
2023/12/23 05:38:18;;;;;;;1.23;0.40;;;;;;;;;;5008092;28;20230;-26
2023/12/23 05:40:45;;;;;;;0.30;0.30;;;;;;;;;;5011773;28;20207;-28
2023/12/23 05:43:12;;;;;;;0.20;0.20;;;;;;;;;;5018732;28;20214;-28
2023/12/23 05:45:39;;;;;;;1.47;0.20;;;;;;;;;;4995581;28;20226;-26
2023/12/23 05:48:08;;;;;;;0.00;0.00;;;;;;;;;;5017082;28;20209;-27
2023/12/23 05:50:35;;;;;;;0.33;0.20;;;;;;;;;;4996763;28;20211;-27
2023/12/23 05:53:03;;;;;;;0.40;0.20;;;;;;;;;;4997061;28;20208;-27
2023/12/23 05:55:31;;;;;;;0.73;0.10;;;;;;;;;;5010502;28;20238;-27
2023/12/23 05:57:58;;;;;;;0.97;0.17;;;;;;;;;;5017788;28;20199;-26
2023/12/23 06:00:25;;;;;;;0.20;0.17;;;;;;;;;;5009019;28;20219;-29
2023/12/23 06:02:52;;;;;;;0.10;0.10;;;;;;;;;;5020906;28;20210;-26
2023/12/23 06:05:20;;;;;;;1.20;0.20;;;;;;;;;;5022497;28;20234;-29
2023/12/23 06:07:47;;;;;;;0.03;0.03;;;;;;;;;;4993272;28;20200;-28
2023/12/23 06:10:14;;;;;;;0.10;0.10;;;;;;;;;;5015830;28;20213;-28
2023/12/23 06:12:42;;;;;;;0.10;0.10;;;;;;;;;;5006942;28;20219;-27
2023/12/23 06:15:09;;;;;;;0.10;0.10;;;;;;;;;;5002916;28;20227;-29
2023/12/23 06:17:36;;;;;;;0.57;0.30;;;;;;;;;;5008742;28;20294;-26
2023/12/23 06:20:04;;;;;;;0.00;0.00;;;;;;;;;;5010857;28;20199;-26
2023/12/23 06:22:33;;;;;;;0.27;0.27;;;;;;;;;;4990213;28;20239;-29
2023/12/23 06:25:00;;;;;;;0.10;0.10;;;;;;;;;;5013765;28;20238;-26
2023/12/23 06:27:27;;;;;;;1.30;0.20;;;;;;;;;;5018452;28;20661;-33
2023/12/23 06:29:54;;;;;;;0.10;0.10;;;;;;;;;;5011966;28;20564;-26
2023/12/23 06:32:21;;;;;;;0.10;0.10;;;;;;;;;;5003682;28;20231;-26
2023/12/23 06:34:48;;;;;;;0.80;0.17;;;;;;;;;;5007266;28;20234;-29
2023/12/23 06:37:15;;;;;;;0.77;0.30;;;;;;;;;;4999081;28;20235;-26
2023/12/23 06:39:43;;;;;;;0.40;0.20;;;;;;;;;;5010889;28;20211;-29
2023/12/23 06:42:10;;;;;;;0.20;0.20;;;;;;;;;;5024395;28;20218;-28
2023/12/23 06:44:38;;;;;;;0.37;0.30;;;;;;;;;;5017173;28;20227;-27
2023/12/23 06:47:07;;;;;;;0.47;0.33;;;;;;;;;;5003395;28;20200;-27
2023/12/23 06:49:34;;;;;;;0.20;0.20;;;;;;;;;;5017120;28;20233;-26
2023/12/23 06:52:01;;;;;;;0.10;0.10;;;;;;;;;;4989531;28;20204;-25
2023/12/23 06:54:28;;;;;;;0.20;0.20;;;;;;;;;;5015802;28;20231;-28
2023/12/23 06:56:57;;;;;;;0.10;0.10;;;;;;;;;;5010009;28;20227;-27
2023/12/23 06:59:24;;;;;;;0.20;0.20;;;;;;;;;;5013765;28;20265;-27
2023/12/23 07:01:51;;;;;;;0.20;0.20;;;;;;;;;;5004125;28;20214;-27
2023/12/23 07:04:18;;;;;;;0.10;0.10;;;;;;;;;;5005568;28;20237;-27
2023/12/23 07:06:45;;;;;;;0.20;0.20;;;;;;;;;;4994994;28;20616;-26
2023/12/23 07:09:12;;;;;;;0.10;0.10;;;;;;;;;;5013350;28;20209;-26
2023/12/23 07:11:39;;;;;;;0.10;0.10;;;;;;;;;;5004947;28;20216;-26
2023/12/23 07:14:08;;;;;;;0.20;0.20;;;;;;;;;;5009282;28;20237;-28
2023/12/23 07:16:35;;;;;;;0.20;0.10;;;;;;;;;;5006112;28;20224;-28
2023/12/23 07:19:02;;;;;;;0.57;0.20;;;;;;;;;;5014088;28;20203;-27
2023/12/23 07:21:29;;;;;;;0.70;0.37;;;;;;;;;;5007294;28;20204;-26
2023/12/23 07:23:56;;;;;;;0.20;0.20;;;;;;;;;;5015293;28;20207;-26
2023/12/23 07:26:26;;;;;;;0.20;0.20;;;;;;;;;;5019682;28;20231;-28
2023/12/23 07:28:53;;;;;;;0.83;0.13;;;;;;;;;;5024506;28;20293;-27
2023/12/23 07:31:22;;;;;;;0.20;0.20;;;;;;;;;;5016748;28;20214;-24
2023/12/23 07:33:49;;;;;;;0.10;0.10;;;;;;;;;;5017996;28;20208;-27
2023/12/23 07:36:16;;;;;;;0.27;0.20;;;;;;;;;;5021290;28;20227;-27
2023/12/23 07:38:43;;;;;;;0.30;0.20;;;;;;;;;;5009637;28;20199;-28
2023/12/23 07:41:11;;;;;;;0.13;0.13;;;;;;;;;;5026014;28;20204;-25
2023/12/23 07:43:38;;;;;;;0.20;0.20;;;;;;;;;;5023700;28;20210;-25
2023/12/23 07:46:05;;;;;;;0.67;0.30;;;;;;;;;;5014403;28;20202;-26
2023/12/23 07:48:34;;;;;;;1.47;0.17;;;;;;;;;;5020824;28;20210;-26
2023/12/23 07:51:06;;;;;;;0.53;0.10;;;;;;;;;;5019103;28;20211;-25
2023/12/23 07:53:33;;;;;;;0.10;0.10;;;;;;;;;;5011968;28;20207;-27
2023/12/23 07:56:00;;;;;;;0.17;0.17;;;;;;;;;;5012879;28;20310;-27
2023/12/23 07:58:28;;;;;;;0.20;0.20;;;;;;;;;;5010441;28;20309;-27
2023/12/23 08:00:55;;;;;;;0.53;0.20;;;;;;;;;;5019826;28;20208;-25
2023/12/23 08:03:22;;;;;;;0.27;0.27;;;;;;;;;;5018830;28;20212;-28
2023/12/23 08:05:50;;;;;;;1.53;0.23;;;;;;;;;;5013709;28;20223;-27
2023/12/23 08:08:20;;;;;;;0.10;0.10;;;;;;;;;;5010631;28;20215;-25
2023/12/23 08:10:47;;;;;;;0.27;0.10;;;;;;;;;;5001189;28;20196;-26
2023/12/23 08:13:14;;;;;;;0.20;0.20;;;;;;;;;;5012727;28;20211;-27
2023/12/23 08:15:41;;;;;;;0.37;0.10;;;;;;;;;;5012994;28;20230;-27
2023/12/23 08:18:08;;;;;;;0.10;0.10;;;;;;;;;;5008978;28;20222;-24
2023/12/23 08:20:35;;;;;;;0.30;0.30;;;;;;;;;;5010234;28;20207;-25
2023/12/23 08:23:04;;;;;;;0.20;0.20;;;;;;;;;;5024103;28;20199;-27
2023/12/23 08:25:31;;;;;;;0.20;0.20;;;;;;;;;;5017466;28;20227;-25
2023/12/23 08:27:58;;;;;;;0.17;0.17;;;;;;;;;;5020631;28;20574;-26
2023/12/23 08:30:25;;;;;;;0.20;0.20;;;;;;;;;;5013121;28;20203;-25
2023/12/23 08:35:58;;;;;;;0.30;0.30;;;;;;;;;;4997381;28;20210;-26
2023/12/23 08:38:28;;;;;;;0.63;0.30;;;;;;;;;;5001243;28;20204;-26
2023/12/23 08:40:55;;;;;;;0.40;0.20;;;;;;;;;;5026079;28;20203;-26
2023/12/23 08:43:22;;;;;;;1.60;0.40;;;;;;;;;;5016199;28;20207;-23
2023/12/23 08:45:49;;;;;;;0.20;0.20;;;;;;;;;;5012846;28;20231;-26
2023/12/23 08:48:17;;;;;;;0.47;0.30;;;;;;;;;;5014783;28;20207;-26
2023/12/23 08:50:44;;;;;;;0.30;0.30;;;;;;;;;;5010769;28;20226;-24
2023/12/23 08:53:11;;;;;;;0.63;0.20;;;;;;;;;;5012733;28;20552;-26
2023/12/23 08:55:39;;;;;;;0.83;0.13;;;;;;;;;;5011141;28;21456;-27
2023/12/23 08:58:06;;;;;;;0.20;0.20;;;;;;;;;;5005917;28;20227;-27
2023/12/23 09:00:35;;;;;;;1.17;0.30;;;;;;;;;;5008926;28;20229;-26
2023/12/23 09:03:03;;;;;;;0.30;0.30;;;;;;;;;;5024683;28;20238;-25
2023/12/23 09:05:30;;;;;;;0.83;0.30;;;;;;;;;;5011926;28;20362;-25
2023/12/23 09:07:57;;;;;;;0.20;0.20;;;;;;;;;;5010145;28;20195;-27
2023/12/23 09:10:24;;;;;;;0.40;0.20;;;;;;;;;;5008132;28;20212;-27
2023/12/23 09:12:52;;;;;;;0.27;0.27;;;;;;;;;;5004442;28;20204;-24
2023/12/23 09:15:19;;;;;;;1.37;0.20;;;;;;;;;;5004407;28;20227;-28
2023/12/23 09:17:46;;;;;;;0.30;0.30;;;;;;;;;;5006345;28;20227;-27
2023/12/23 09:20:13;;;;;;;3.40;0.37;;;;;;;;;;5017297;28;20203;-27
2023/12/23 09:22:40;;;;;;;0.30;0.20;;;;;;;;;;5010374;28;20235;-27
2023/12/23 09:25:08;;;;;;;0.10;0.10;;;;;;;;;;5018756;28;20223;-25
2023/12/23 09:27:35;;;;;;;0.30;0.30;;;;;;;;;;5010768;28;20219;-27
2023/12/23 09:30:04;;;;;;;0.37;0.37;;;;;;;;;;5008056;28;20198;-27
2023/12/23 09:32:31;;;;;;;0.33;0.20;;;;;;;;;;5016487;28;20208;-27
2023/12/23 09:34:58;;;;;;;0.20;0.20;;;;;;;;;;5018160;28;20223;-27
2023/12/23 09:37:25;;;;;;;0.30;0.30;;;;;;;;;;5004265;28;20506;-24
2023/12/23 09:39:53;;;;;;;0.63;0.30;;;;;;;;;;5028227;28;20207;-25
2023/12/23 09:42:20;;;;;;;0.30;0.30;;;;;;;;;;5006800;28;20306;-25
2023/12/23 09:44:47;;;;;;;0.50;0.50;;;;;;;;;;5012111;28;20227;-26
2023/12/23 09:47:15;;;;;;;0.53;0.20;;;;;;;;;;5024241;28;20203;-25
2023/12/23 09:49:43;;;;;;;0.27;0.27;;;;;;;;;;5021346;28;20211;-28
2023/12/23 09:52:10;;;;;;;0.20;0.20;;;;;;;;;;5007176;28;20209;-26
2023/12/23 09:54:40;;;;;;;0.40;0.20;;;;;;;;;;5019583;28;20322;-26
2023/12/23 09:57:08;;;;;;;0.20;0.20;;;;;;;;;;5025366;28;20231;-25
2023/12/23 09:59:35;;;;;;;0.20;0.20;;;;;;;;;;5022302;28;20246;-26
2023/12/23 10:02:02;;;;;;;0.17;0.17;;;;;;;;;;5013627;28;20292;-25
2023/12/23 10:04:31;;;;;;;0.20;0.20;;;;;;;;;;5010512;28;20242;-25
2023/12/23 10:06:58;;;;;;;0.20;0.20;;;;;;;;;;4999173;28;20219;-28
2023/12/23 10:09:25;;;;;;;0.20;0.10;;;;;;;;;;5006229;28;20203;-26
2023/12/23 10:12:02;;;;;;;0.10;0.10;;;;;;;;;;5010615;28;20203;-28
2023/12/23 10:14:29;;;;;;;0.20;0.20;;;;;;;;;;5004661;28;20227;-25
2023/12/23 10:16:56;;;;;;;0.10;0.10;;;;;;;;;;5012472;28;20222;-26
2023/12/23 10:19:24;;;;;;;0.23;0.20;;;;;;;;;;5015270;28;20221;-25
2023/12/23 10:21:52;;;;;;;0.00;0.00;;;;;;;;;;5012079;28;20207;-26
2023/12/23 10:24:19;;;;;;;0.20;0.10;;;;;;;;;;5020978;28;20223;-24
2023/12/23 10:26:47;;;;;;;0.10;0.10;;;;;;;;;;5016507;28;20214;-27
2023/12/23 10:29:17;;;;;;;0.77;0.10;;;;;;;;;;5023299;28;20207;-26
2023/12/23 10:31:46;;;;;;;0.20;0.20;;;;;;;;;;5014081;28;20215;-25
2023/12/23 10:34:13;;;;;;;0.10;0.10;;;;;;;;;;5015525;28;20234;-28
2023/12/23 10:37:04;;;;;;;0.20;0.20;;;;;;;;;;5012829;28;20211;-26
2023/12/23 10:39:34;;;;;;;0.60;0.20;;;;;;;;;;5031688;28;20231;-26
2023/12/23 10:42:04;;;;;;;0.23;0.23;;;;;;;;;;5021972;28;20203;-27
2023/12/23 10:44:32;;;;;;;0.20;0.20;;;;;;;;;;5006797;28;20238;-27
2023/12/23 10:46:59;;;;;;;0.30;0.30;;;;;;;;;;5010547;28;20287;-26
2023/12/23 10:49:27;;;;;;;0.27;0.27;;;;;;;;;;5018068;28;20227;-25
2023/12/23 10:51:55;;;;;;;0.10;0.10;;;;;;;;;;5011762;28;20214;-27
2023/12/23 10:54:24;;;;;;;0.20;0.20;;;;;;;;;;5027513;28;20261;-25
2023/12/23 10:56:54;;;;;;;0.20;0.20;;;;;;;;;;5023875;28;20221;-27
2023/12/23 10:59:21;;;;;;;0.20;0.20;;;;;;;;;;5017932;28;20226;-25
2023/12/23 11:01:48;;;;;;;0.10;0.10;;;;;;;;;;5004179;28;20290;-26
2023/12/23 11:04:15;;;;;;;0.10;0.10;;;;;;;;;;5016298;28;20234;-24
2023/12/23 11:06:45;;;;;;;0.10;0.10;;;;;;;;;;5008693;28;20208;-27
2023/12/23 11:09:13;;;;;;;0.27;0.27;;;;;;;;;;5013655;28;20215;-25
2023/12/23 11:11:42;;;;;;;0.20;0.20;;;;;;;;;;5022591;28;20250;-27
2023/12/23 11:14:10;;;;;;;0.30;0.20;;;;;;;;;;5011106;28;20768;-25
2023/12/23 11:16:40;;;;;;;0.10;0.10;;;;;;;;;;5011158;28;20215;-26
2023/12/23 11:19:09;;;;;;;0.10;0.10;;;;;;;;;;5021924;28;20226;-26
2023/12/23 11:21:37;;;;;;;0.10;0.10;;;;;;;;;;4999700;28;20286;-27
2023/12/23 11:24:25;;;;;;;0.30;0.10;;;;;;;;;;5011643;28;20236;-26
2023/12/23 11:26:53;;;;;;;0.20;0.20;;;;;;;;;;5015397;28;20215;-26
2023/12/23 11:29:22;;;;;;;0.10;0.10;;;;;;;;;;5011704;28;20208;-26
2023/12/23 11:31:50;;;;;;;0.10;0.10;;;;;;;;;;5017440;28;20226;-26
2023/12/23 11:34:20;;;;;;;0.27;0.27;;;;;;;;;;5027257;28;20227;-26
2023/12/23 11:36:47;;;;;;;1.90;0.10;;;;;;;;;;5009664;28;20227;-28
2023/12/23 11:39:14;;;;;;;0.40;0.40;;;;;;;;;;5017275;28;20227;-28
2023/12/23 11:41:42;;;;;;;0.17;0.17;;;;;;;;;;5014994;28;20208;-27
2023/12/23 11:44:11;;;;;;;0.13;0.13;;;;;;;;;;5010506;28;20248;-26
2023/12/23 11:46:40;;;;;;;0.10;0.10;;;;;;;;;;5009566;28;20211;-27
2023/12/23 11:49:09;;;;;;;0.60;0.23;;;;;;;;;;5019210;28;20203;-27
2023/12/23 11:51:36;;;;;;;0.10;0.10;;;;;;;;;;5002268;28;20211;-26
2023/12/23 11:54:04;;;;;;;0.20;0.20;;;;;;;;;;5002437;28;20234;-25
2023/12/23 11:56:31;;;;;;;0.10;0.10;;;;;;;;;;5018186;28;20222;-26
2023/12/23 11:59:00;;;;;;;0.10;0.10;;;;;;;;;;5010791;28;20231;-26
2023/12/23 12:01:27;;;;;;;0.40;0.40;;;;;;;;;;4999760;28;20234;-27
2023/12/23 12:03:56;;;;;;;0.40;0.40;;;;;;;;;;5007986;28;20203;-27
2023/12/23 12:06:25;;;;;;;0.10;0.10;;;;;;;;;;5006457;28;20213;-27
2023/12/23 12:08:52;;;;;;;0.23;0.20;;;;;;;;;;5014974;28;20218;-25
2023/12/23 12:11:19;;;;;;;0.20;0.20;;;;;;;;;;5021316;28;20199;-26
2023/12/23 12:13:46;;;;;;;0.10;0.10;;;;;;;;;;5016480;28;20224;-26
2023/12/23 12:16:16;;;;;;;0.20;0.20;;;;;;;;;;5002647;28;20201;-25
2023/12/23 12:18:46;;;;;;;0.53;0.30;;;;;;;;;;5010352;28;20215;-28
2023/12/23 12:21:15;;;;;;;0.30;0.30;;;;;;;;;;5014424;28;20210;-26
2023/12/23 12:23:42;;;;;;;0.20;0.20;;;;;;;;;;5011388;28;20215;-27
2023/12/23 12:26:09;;;;;;;0.10;0.10;;;;;;;;;;5027321;28;20204;-26
2023/12/23 12:28:37;;;;;;;0.23;0.20;;;;;;;;;;5020222;28;20210;-27
2023/12/23 12:31:19;;;;;;;0.60;0.20;;;;;;;;;;4997722;28;20255;-26
2023/12/23 12:33:54;;;;;;;0.70;0.40;;;;;;;;;;5009535;28;20210;-25
2023/12/23 12:36:28;;;;;;;0.63;0.53;;;;;;;;;;5003244;28;20210;-28
2023/12/23 12:38:55;;;;;;;0.57;0.50;;;;;;;;;;5013428;28;20237;-25
2023/12/23 12:41:22;;;;;;;0.30;0.30;;;;;;;;;;5031052;28;20206;-25
2023/12/23 12:43:50;;;;;;;0.30;0.30;;;;;;;;;;5013474;28;20203;-27
2023/12/23 12:46:18;;;;;;;0.20;0.20;;;;;;;;;;5004880;28;20210;-26
2023/12/23 12:48:46;;;;;;;0.20;0.20;;;;;;;;;;5013154;28;20210;-27
2023/12/23 12:51:14;;;;;;;0.10;0.10;;;;;;;;;;5003528;28;20242;-25
2023/12/23 12:53:43;;;;;;;1.07;0.20;;;;;;;;;;5013391;28;20261;-26
2023/12/23 12:56:10;;;;;;;0.20;0.20;;;;;;;;;;5014456;28;20206;-28
2023/12/23 12:58:37;;;;;;;0.30;0.30;;;;;;;;;;5002034;28;20230;-28
2023/12/23 13:01:04;;;;;;;0.30;0.30;;;;;;;;;;5004981;28;20210;-27
2023/12/23 13:03:31;;;;;;;0.20;0.20;;;;;;;;;;5000362;28;20210;-29
2023/12/23 13:05:59;;;;;;;0.57;0.57;;;;;;;;;;4997654;28;20269;-26
2023/12/23 13:08:26;;;;;;;0.30;0.30;;;;;;;;;;5019010;28;20203;-27
2023/12/23 13:10:54;;;;;;;0.20;0.20;;;;;;;;;;5018057;28;20203;-26
2023/12/23 13:13:21;;;;;;;0.17;0.17;;;;;;;;;;5022935;28;20219;-27
2023/12/23 13:16:02;;;;;;;0.13;0.13;;;;;;;;;;5013867;28;20234;-25
2023/12/23 13:18:29;;;;;;;0.10;0.10;;;;;;;;;;5007637;28;20276;-27
2023/12/23 13:20:56;;;;;;;0.10;0.10;;;;;;;;;;5005070;28;20211;-27
2023/12/23 13:23:23;;;;;;;0.50;0.30;;;;;;;;;;5012445;28;20245;-27
2023/12/23 13:25:51;;;;;;;0.20;0.20;;;;;;;;;;5026315;28;20222;-28
2023/12/23 13:28:19;;;;;;;0.23;0.23;;;;;;;;;;5010898;28;20203;-28
2023/12/23 13:30:47;;;;;;;0.17;0.17;;;;;;;;;;5013053;28;20230;-27
2023/12/23 13:33:14;;;;;;;0.50;0.50;;;;;;;;;;4997778;28;20215;-26
2023/12/23 13:35:42;;;;;;;0.43;0.23;;;;;;;;;;5007825;28;20231;-28
2023/12/23 13:38:09;;;;;;;0.30;0.30;;;;;;;;;;5001469;28;20229;-28
2023/12/23 13:40:36;;;;;;;0.20;0.20;;;;;;;;;;5012730;28;20214;-28
2023/12/23 13:43:03;;;;;;;0.10;0.10;;;;;;;;;;5030619;28;20607;-27
2023/12/23 13:45:31;;;;;;;0.17;0.17;;;;;;;;;;5023865;28;20263;-27
2023/12/23 13:47:58;;;;;;;0.10;0.10;;;;;;;;;;5012855;28;20207;-27
2023/12/23 13:50:26;;;;;;;0.30;0.30;;;;;;;;;;5016028;28;20203;-28
2023/12/23 13:52:53;;;;;;;0.10;0.10;;;;;;;;;;5009706;28;20255;-27
2023/12/23 13:55:20;;;;;;;0.10;0.10;;;;;;;;;;5016090;28;20223;-27
2023/12/23 13:57:48;;;;;;;0.30;0.10;;;;;;;;;;5022675;28;20303;-27
2023/12/23 14:00:15;;;;;;;0.60;0.20;;;;;;;;;;5013305;28;20207;-28
2023/12/23 14:02:44;;;;;;;0.20;0.20;;;;;;;;;;5014222;28;20203;-25
2023/12/23 14:05:11;;;;;;;0.10;0.10;;;;;;;;;;4999480;28;20227;-27
2023/12/23 14:07:38;;;;;;;0.20;0.20;;;;;;;;;;5001369;28;20231;-25
2023/12/23 14:10:05;;;;;;;0.30;0.30;;;;;;;;;;5014375;28;20215;-26
2023/12/23 14:12:32;;;;;;;0.20;0.20;;;;;;;;;;5016487;28;20199;-28
2023/12/23 14:15:00;;;;;;;0.50;0.30;;;;;;;;;;5006416;28;20227;-27
2023/12/23 14:17:33;;;;;;;1.33;0.27;;;;;;;;;;5014141;28;20621;-24
2023/12/23 14:20:05;;;;;;;0.10;0.10;;;;;;;;;;5024013;28;20235;-27
2023/12/23 14:22:32;;;;;;;0.20;0.20;;;;;;;;;;5010481;28;20225;-26
2023/12/23 14:24:59;;;;;;;0.17;0.17;;;;;;;;;;5022971;28;20223;-26
2023/12/23 14:27:26;;;;;;;0.23;0.23;;;;;;;;;;5017070;28;20214;-28
2023/12/23 14:29:53;;;;;;;0.20;0.20;;;;;;;;;;5011501;28;20566;-26
2023/12/23 14:32:20;;;;;;;0.20;0.20;;;;;;;;;;5008536;28;20214;-27
2023/12/23 14:34:47;;;;;;;0.60;0.60;;;;;;;;;;5007952;28;20228;-28
2023/12/23 14:37:16;;;;;;;0.60;0.60;;;;;;;;;;5014720;28;20203;-26
2023/12/23 14:39:44;;;;;;;0.20;0.20;;;;;;;;;;5009585;28;20228;-25
2023/12/23 14:42:11;;;;;;;0.43;0.43;;;;;;;;;;5014926;28;20206;-27
2023/12/23 14:44:38;;;;;;;0.30;0.30;;;;;;;;;;5012743;28;20227;-27
2023/12/23 14:47:06;;;;;;;0.10;0.10;;;;;;;;;;5010880;28;20215;-26
2023/12/23 14:49:33;;;;;;;0.30;0.30;;;;;;;;;;5015527;28;20208;-27